sensor_id;sensor_type;location;lat;lon;timestamp;P1;durP1;ratioP1;P2;durP2;ratioP2
31818;SDS011;18384;48.860;9.188;2023-09-19T18:49:38;3.17;;;1.35;;
31818;SDS011;18384;48.860;9.188;2023-09-19T18:52:05;3.42;;;1.40;;
31818;SDS011;18384;48.860;9.188;2023-09-19T18:54:33;5.35;;;1.55;;
31818;SDS011;18384;48.860;9.188;2023-09-19T18:56:59;4.25;;;1.55;;
31818;SDS011;18384;48.860;9.188;2023-09-19T18:59:25;3.25;;;1.77;;
31818;SDS011;18384;48.860;9.188;2023-09-19T19:01:52;5.65;;;1.85;;
31818;SDS011;18384;48.860;9.188;2023-09-19T19:04:19;4.72;;;1.73;;
31818;SDS011;18384;48.860;9.188;2023-09-19T19:06:45;3.75;;;1.85;;
31818;SDS011;18384;48.860;9.188;2023-09-19T19:09:11;3.80;;;1.70;;
31818;SDS011;18384;48.860;9.188;2023-09-19T19:11:37;4.93;;;1.62;;
31818;SDS011;18384;48.860;9.188;2023-09-19T19:14:05;3.95;;;1.50;;
31818;SDS011;18384;48.860;9.188;2023-09-19T19:16:31;7.28;;;1.45;;
31818;SDS011;18384;48.860;9.188;2023-09-19T19:18:59;6.32;;;3.00;;
31818;SDS011;18384;48.860;9.188;2023-09-19T19:21:26;5.37;;;2.53;;
31818;SDS011;18384;48.860;9.188;2023-09-19T19:23:52;5.80;;;3.08;;
31818;SDS011;18384;48.860;9.188;2023-09-19T19:26:18;6.55;;;2.55;;
31818;SDS011;18384;48.860;9.188;2023-09-19T19:28:48;6.32;;;2.00;;
31818;SDS011;18384;48.860;9.188;2023-09-19T19:31:15;6.32;;;2.83;;
31818;SDS011;18384;48.860;9.188;2023-09-19T19:33:42;5.47;;;2.80;;
31818;SDS011;18384;48.860;9.188;2023-09-19T19:36:10;5.50;;;2.10;;
31818;SDS011;18384;48.860;9.188;2023-09-19T19:38:37;5.75;;;2.37;;
31818;SDS011;18384;48.860;9.188;2023-09-19T19:41:05;5.18;;;2.70;;
31818;SDS011;18384;48.860;9.188;2023-09-19T19:43:32;8.15;;;3.72;;
31818;SDS011;18384;48.860;9.188;2023-09-19T19:46:00;7.10;;;2.92;;
31818;SDS011;18384;48.860;9.188;2023-09-19T19:48:29;6.55;;;3.12;;
31818;SDS011;18384;48.860;9.188;2023-09-19T19:50:55;5.72;;;2.55;;
31818;SDS011;18384;48.860;9.188;2023-09-19T19:53:25;6.03;;;2.60;;
31818;SDS011;18384;48.860;9.188;2023-09-19T19:55:51;8.50;;;2.50;;
31818;SDS011;18384;48.860;9.188;2023-09-19T20:00:47;8.30;;;2.30;;
31818;SDS011;18384;48.860;9.188;2023-09-19T20:03:15;7.80;;;2.47;;
31818;SDS011;18384;48.860;9.188;2023-09-19T20:05:42;6.03;;;1.83;;
31818;SDS011;18384;48.860;9.188;2023-09-19T20:08:08;7.00;;;2.12;;
31818;SDS011;18384;48.860;9.188;2023-09-19T20:10:38;5.93;;;2.50;;
31818;SDS011;18384;48.860;9.188;2023-09-19T20:13:07;5.35;;;2.08;;
31818;SDS011;18384;48.860;9.188;2023-09-19T20:15:36;4.32;;;1.83;;
31818;SDS011;18384;48.860;9.188;2023-09-19T20:18:06;5.22;;;2.25;;
31818;SDS011;18384;48.860;9.188;2023-09-19T20:20:37;4.75;;;1.92;;
31818;SDS011;18384;48.860;9.188;2023-09-19T20:23:04;3.45;;;1.62;;
31818;SDS011;18384;48.860;9.188;2023-09-19T20:25:35;6.32;;;1.50;;
31818;SDS011;18384;48.860;9.188;2023-09-19T20:28:05;4.57;;;1.70;;
31818;SDS011;18384;48.860;9.188;2023-09-19T20:30:32;4.65;;;1.60;;
31818;SDS011;18384;48.860;9.188;2023-09-19T20:32:58;5.45;;;2.00;;
31818;SDS011;18384;48.860;9.188;2023-09-19T20:35:27;3.80;;;1.58;;
31818;SDS011;18384;48.860;9.188;2023-09-19T20:37:54;4.72;;;1.40;;
31818;SDS011;18384;48.860;9.188;2023-09-19T20:40:25;4.40;;;1.92;;
31818;SDS011;18384;48.860;9.188;2023-09-19T20:45:19;3.72;;;1.75;;
31818;SDS011;18384;48.860;9.188;2023-09-19T20:47:45;4.18;;;1.95;;
31818;SDS011;18384;48.860;9.188;2023-09-19T20:50:13;4.30;;;2.15;;
31818;SDS011;18384;48.860;9.188;2023-09-19T20:52:40;9.15;;;2.20;;
31818;SDS011;18384;48.860;9.188;2023-09-19T20:57:33;3.30;;;1.77;;
31818;SDS011;18384;48.860;9.188;2023-09-19T21:02:26;5.77;;;2.40;;
31818;SDS011;18384;48.860;9.188;2023-09-19T21:04:52;5.55;;;1.98;;
31818;SDS011;18384;48.860;9.188;2023-09-19T21:07:18;3.80;;;1.98;;
31818;SDS011;18384;48.860;9.188;2023-09-19T21:09:44;4.68;;;2.00;;
31818;SDS011;18384;48.860;9.188;2023-09-19T21:12:10;3.28;;;1.87;;
31818;SDS011;18384;48.860;9.188;2023-09-19T21:14:36;3.65;;;1.80;;
31818;SDS011;18384;48.860;9.188;2023-09-19T21:17:02;5.97;;;2.37;;
31818;SDS011;18384;48.860;9.188;2023-09-19T21:19:29;5.50;;;2.05;;
31818;SDS011;18384;48.860;9.188;2023-09-19T21:21:56;4.03;;;1.77;;
31818;SDS011;18384;48.860;9.188;2023-09-19T21:24:23;4.15;;;1.45;;
31818;SDS011;18384;48.860;9.188;2023-09-19T21:26:52;3.20;;;1.70;;
31818;SDS011;18384;48.860;9.188;2023-09-19T21:29:18;5.72;;;2.00;;
31818;SDS011;18384;48.860;9.188;2023-09-19T21:31:44;3.83;;;1.50;;
31818;SDS011;18384;48.860;9.188;2023-09-19T21:34:12;6.07;;;1.77;;
31818;SDS011;18384;48.860;9.188;2023-09-19T21:36:39;6.72;;;2.50;;
31818;SDS011;18384;48.860;9.188;2023-09-19T21:39:06;6.03;;;3.15;;
31818;SDS011;18384;48.860;9.188;2023-09-19T21:41:33;4.70;;;2.37;;
31818;SDS011;18384;48.860;9.188;2023-09-19T21:44:01;4.47;;;1.77;;
31818;SDS011;18384;48.860;9.188;2023-09-19T21:46:27;4.12;;;1.62;;
31818;SDS011;18384;48.860;9.188;2023-09-19T21:48:54;3.92;;;1.67;;
31818;SDS011;18384;48.860;9.188;2023-09-19T21:51:21;3.20;;;1.65;;
31818;SDS011;18384;48.860;9.188;2023-09-19T21:53:48;4.82;;;1.95;;
31818;SDS011;18384;48.860;9.188;2023-09-19T21:56:14;4.32;;;1.60;;
31818;SDS011;18384;48.860;9.188;2023-09-19T21:58:43;8.70;;;1.60;;
31818;SDS011;18384;48.860;9.188;2023-09-19T22:01:09;4.45;;;1.98;;
31818;SDS011;18384;48.860;9.188;2023-09-19T22:03:38;5.80;;;3.60;;
31818;SDS011;18384;48.860;9.188;2023-09-19T22:06:06;6.70;;;2.80;;
31818;SDS011;18384;48.860;9.188;2023-09-19T22:08:39;5.55;;;2.90;;
31818;SDS011;18384;48.860;9.188;2023-09-19T22:11:06;4.93;;;3.00;;
31818;SDS011;18384;48.860;9.188;2023-09-19T22:13:35;7.55;;;2.90;;
31818;SDS011;18384;48.860;9.188;2023-09-19T22:16:13;7.37;;;2.17;;
31818;SDS011;18384;48.860;9.188;2023-09-19T22:18:41;4.30;;;2.05;;
31818;SDS011;18384;48.860;9.188;2023-09-19T22:21:17;6.32;;;1.75;;
31818;SDS011;18384;48.860;9.188;2023-09-19T22:23:47;7.97;;;1.80;;
31818;SDS011;18384;48.860;9.188;2023-09-19T22:26:20;7.40;;;1.73;;
31818;SDS011;18384;48.860;9.188;2023-09-19T22:28:51;4.57;;;1.58;;
31818;SDS011;18384;48.860;9.188;2023-09-19T22:31:23;4.37;;;1.90;;
31818;SDS011;18384;48.860;9.188;2023-09-19T22:34:01;6.47;;;1.92;;
31818;SDS011;18384;48.860;9.188;2023-09-19T22:36:31;5.85;;;1.70;;
31818;SDS011;18384;48.860;9.188;2023-09-19T22:39:10;5.10;;;1.85;;
31818;SDS011;18384;48.860;9.188;2023-09-19T22:41:49;4.25;;;1.83;;
31818;SDS011;18384;48.860;9.188;2023-09-19T22:44:19;6.20;;;1.80;;
31818;SDS011;18384;48.860;9.188;2023-09-19T22:46:50;5.97;;;1.95;;
31818;SDS011;18384;48.860;9.188;2023-09-19T22:49:17;4.75;;;1.70;;
31818;SDS011;18384;48.860;9.188;2023-09-19T22:51:47;6.05;;;1.70;;
31818;SDS011;18384;48.860;9.188;2023-09-19T22:54:17;4.43;;;1.50;;
31818;SDS011;18384;48.860;9.188;2023-09-19T22:56:50;2.80;;;1.70;;
31818;SDS011;18384;48.860;9.188;2023-09-19T22:59:18;4.32;;;1.98;;
31818;SDS011;18384;48.860;9.188;2023-09-19T23:01:45;4.62;;;1.77;;
31818;SDS011;18384;48.860;9.188;2023-09-19T23:04:14;7.57;;;2.00;;
31818;SDS011;18384;48.860;9.188;2023-09-19T23:06:42;3.80;;;1.48;;
31818;SDS011;18384;48.860;9.188;2023-09-19T23:09:16;3.90;;;1.62;;
31818;SDS011;18384;48.860;9.188;2023-09-19T23:11:47;2.92;;;1.55;;
31818;SDS011;18384;48.860;9.188;2023-09-19T23:14:20;4.25;;;1.60;;
31818;SDS011;18384;48.860;9.188;2023-09-19T23:16:54;3.30;;;1.60;;
31818;SDS011;18384;48.860;9.188;2023-09-19T23:19:25;3.55;;;1.40;;
31818;SDS011;18384;48.860;9.188;2023-09-19T23:21:55;6.05;;;1.70;;
31818;SDS011;18384;48.860;9.188;2023-09-19T23:24:36;3.58;;;1.37;;
31818;SDS011;18384;48.860;9.188;2023-09-19T23:27:06;2.30;;;1.27;;
31818;SDS011;18384;48.860;9.188;2023-09-19T23:29:39;4.20;;;1.73;;
31818;SDS011;18384;48.860;9.188;2023-09-19T23:34:33;3.60;;;1.33;;
31818;SDS011;18384;48.860;9.188;2023-09-19T23:36:59;4.72;;;1.67;;
31818;SDS011;18384;48.860;9.188;2023-09-19T23:39:27;3.85;;;1.33;;
31818;SDS011;18384;48.860;9.188;2023-09-19T23:41:55;3.40;;;1.83;;
31818;SDS011;18384;48.860;9.188;2023-09-19T23:44:22;4.87;;;1.80;;
31818;SDS011;18384;48.860;9.188;2023-09-19T23:46:48;6.07;;;1.52;;
31818;SDS011;18384;48.860;9.188;2023-09-19T23:49:23;4.68;;;1.48;;
31818;SDS011;18384;48.860;9.188;2023-09-19T23:51:49;3.62;;;1.50;;
31818;SDS011;18384;48.860;9.188;2023-09-19T23:54:21;5.05;;;1.70;;
31818;SDS011;18384;48.860;9.188;2023-09-19T23:56:53;3.92;;;1.52;;
31818;SDS011;18384;48.860;9.188;2023-09-19T23:59:19;4.87;;;1.20;;
